Marion, North Dakota
Current Conditions -  °F | °C
As of 8:35 PM on Wednesday 26 Nov 2014 (Local Time) from KBAC Reporting Station
Clear Clear  
Wind Chill: -23°   Ceiling: Unl
Heat Index: -8°   Visibility: 10mi
Dew Point: -13°   Wind: 8mph
Humidity: 77%   Direction: 330°NNW
Pressure: 30.47"   Gusts: NA
Location:  46.61°N, 98.33°W
Report Text: KBAC 270235Z AUTO 33007KT 10SM CLR M22/M25 A3047 RMK AO2
Loading
Personal Weather Stations






























Interactive Weather Map New forecast layout! Learn more

10-Day Weather Forecast

Advertisements
Track Severe Weather on mobile